Aérodrome :
LOGIN :

S'inscrire | Disclaimer

   EN    FR    IT 

 










Légende :    VFR   VFR Marginal   IFR   IFR Intensif   IFR Très Intensif
Visi : 
Plafond : 
>= 8 km
>= 3000ft
5 à 8 km
1000 à 3000 ft
1500m à 5 km
500 à 1000 ft
800 à 1500m
200 à 500 ft
< 800m
< 200 ft
Symboles :   Orages  Brouillard  Fortes neiges  Fortes précipitations  Vent > 20 kt
SIGMETs :   Divers  Orages  Givrage  Turbulence  Onde Orograph.  Cendres Volcan.







- Altitude de l'aérodrome : 102 ft
- Code IATA : EXT
- Voir les cartes d'approche


EGTE - Exeter

DERNIER METAR :
  • 271250Z 25013KT 9999 SCT027 17/09 Q1012

METARs EXPIRÉS :
  • 271220Z 26012KT 9999 SCT027 16/09 Q1012
  • 271150Z 26011KT 230V300 9999 SCT025 16/10 Q1013
  • 271120Z 28012KT 250V310 9999 FEW020 SCT040 15/10 Q1013
  • 271050Z 27010KT 9999 FEW020 SCT035 15/09 Q1013
  • 271020Z 29010KT 9999 FEW020 SCT035 14/10 Q1013
  • 270950Z 29009KT 260V320 9999 SCT020 14/11 Q1013

TAF TAF EGTE
Valide du 27 à 12h jusqu'au 27 à 21h UTC


271055Z 2712/2721 28012KT 9999 FEW025 SCT040
PROB30
TEMPO 2712/2721 6000 SHRA
PROB30
TEMPO 2712/2719 28015G25KT
Pas de NOTAMs connus pour ce terrain.



MET'MAP, la Météo Aéronautique d'un coup d'oeil ! - Copyright ORBIFLY Décembre 2007 - Disclaimer

ORBIFLY MET'MAP TEAM :

Programmation & Développement : Alexandra Zaïnal
Conception & Développement : Baudouin d'Aumeries
Co-Programmation & Développement : Marc-Olivier Méhu
Soutien technique & logistique : Manuel Goepfert

Contact : metmap@orbifly.com




SOURCES & CREDITS :

   NOAA